Capitol Logistics 19




KLAX
Los Angeles International Airport
Los Angeles, California
KMIA
Miami International Airport
Miami, Florida

Activity Log

Date Flight Route Aircraft Duration
09/06/2020 CPX101 DOTSS2 CNERY BLH J65 KOFFA J169 TFD J50 ELP J2 JCT J86 LEV Q102 BAGGS SSCOT5 B77L 4h 46m
08/27/2020 CPX209 DOTSS2 CNERY BLH J65 KOFFA J169 TFD J50 ELP J2 JCT J86 LEV Q102 BAGGS SSCOT5 B752 4h 54m
08/13/2020 CPX101 DOTSS2 CNERY BLH J65 KOFFA J169 TFD J50 ELP J2 JCT J86 LEV Q102 BAGGS SSCOT5 B744 4h 50m
08/06/2020 CPX209 KLAX/25L DOTSS2 CLEEE PKE J78 ABQ J72 TXO FUZ J58 HRV Q105 BLVNS Y290 BAGGS SSCOT5 KMIA/I12 B763 4h 33m
05/08/2020 CPX209 DOTSS2 CNERY BLH J65 KOFFA J169 TFD J50 ELP J2 JCT J86 LEV Q102 BAGGS SSCOT5 B763 4h 19m
04/23/2020 CPX209 TUSTI2 CNERY ZEBOL Q4 ELP J2 JCT J86 LEV Q102 BAGGS SSCOT5 B763 4h 29m
04/15/2020 CPX101 DOTSS2 CNERY BLH J65 KOFFA J169 TFD J50 ELP J2 JCT J86 LEV Q102 BAGGS SSCOT5 B77L 6h 00m
12/28/2019 CPX101 DOTSS2 CNERY BLH J65 KOFFA J169 TFD J50 ELP J2 JCT J86 LEV Q102 BAGGS SSCOT5 B744 4h 16m
11/04/2019 CPX101 DOTSS2 CNERY BLH J65 KOFFA J169 TFD J50 ELP J2 JCT J86 LEV Q102 BAGGS SSCOT5 B744 4h 48m
10/23/2019 CPX101 DOTSS2 CNERY BLH J65 KOFFA J169 TFD J50 ELP J2 JCT J86 LEV Q102 BAGGS SSCOT5 B744 4h 48m
10/16/2019 CPX209 DOTSS2 CNERY BLH J65 KOFFA J169 TFD J50 ELP J2 JCT J86 LEV Q102 BAGGS SSCOT5 B763 4h 42m
10/10/2019 CPX101 DOTSS2 CNERY BLH J65 KOFFA J169 TFD J50 ELP J2 JCT J86 LEV Q102 BAGGS SSCOT5 B744 4h 53m
07/19/2019 CPX209 DOTSS2 CNERY BLH J65 KOFFA J169 TFD J50 ELP J2 JCT J86 LEV Q102 BAGGS SSCOT5 B763 5h 00m
06/30/2019 CPX209 DOTSS2 CNERY BLH J65 KOFFA J169 TFD J50 ELP J2 JCT J86 LEV Q102 BAGGS SSCOT5 B763 4h 58m
05/09/2019 CPX101 DOTSS2 CNERY BLH J65 KOFFA J169 TFD J50 ALIBY J50 ELP J2 JCT J86 LEV Y290 BLVNS Y290 CIGAR Y290 BAGGS SSCOT5 B744 4h 11m
04/16/2019 CPX101 DOTSS2 CNERY BLH J65 KOFFA J169 TFD J50 ELP J2 JCT J86 LEV Q102 BAGGS SSCOT5 B744 5h 29m
01/10/2019 CPX103 TUSTI2 TUSTI V64 TRM J169 KOFFA BXK J184 EWM JCT J86 LEV Q102 CIGAR Y290 BAGGS SSCOT5 MD11 4h 29m
01/10/2019 CPX111 PNDAH2 TCATE IPL J2 GBN J50 ELP J86 LEV Y290 BAGGS SSCOT5 B763 4h 36m
12/27/2018 CPX109 DOTSS2 CNERY BLH J65 KOFFA J169 TFD J50 SSO/N0472F330 J50 ELP J2 JCT J86 LEV Q102 BAGGS SSCOT4 B763 4h 29m
11/15/2018 CPX111 DOTSS2 CNERY BLH J65 KOFFA J169 TFD J50 ELP J2 FST J2 JCT J86 LEV Y290 BLVNS Y290 BAGGS SSCOT5 MD11 4h 20m

Route Details

Aircraft Information
Primary: Boeing 747-400BCF
Backup: Not Available
Route Data
Distance: 2091nm
Duration: 4h 45m
Recm'd Route: DOTSS2 CNERY BLH J65 KOFFA J169 TFD J50 ELP J2 JCT J86 LEV Q102 BAGGS SSCOT5
Origin Wx: KLAX 191246Z 00000KT 3SM BR FEW005 OVC010 18/16 A2981 RMK AO2 T01780156
Dest. Wx: KMIA 191153Z 12008KT 10SM FEW025 SCT090 BKN200 OVC250 29/24 A3009 RMK AO2 SLP188 T02890244 10289 20278 53015 $
Notes: